Alta, Utah
Current Conditions -  °F | °C
As of 12:55 AM on Sunday 26 Oct 2014 (Local Time) from K36U Reporting Station
Broken Clouds Broken Clouds  
Wind Chill: 63°   Ceiling: 10000
Heat Index: 63°   Visibility: 10mi
Dew Point: 37°   Wind: 22mph
Humidity: 39%   Direction: 220°SW
Pressure: 29.99"   Gusts: 30mph
Location:  40.5907°N, 111.707°W
Report Text: K36U 260655Z AUTO 22019G26KT 10SM BKN100 BKN120 17/03 A2999 RMK AO2
Loading
Personal Weather Stations






























Interactive Weather Map
Tropical Storm Tracking
New forecast layout! Learn more

10-Day Weather Forecast

Advertisements
Track Severe Weather on mobile